createdAt,value
2019-04-26T00:03:32.649Z,2.77
2019-04-26T00:08:37.080Z,2.97
2019-04-26T00:13:57.260Z,2.50
2019-04-26T00:18:58.982Z,2.63
2019-04-26T00:24:00.566Z,2.90
2019-04-26T00:29:08.023Z,2.93
2019-04-26T00:34:09.433Z,3.33
2019-04-26T00:39:11.853Z,3.03
2019-04-26T00:44:14.868Z,3.10
2019-04-26T00:49:17.649Z,2.73
2019-04-26T00:54:20.246Z,3.43
2019-04-26T00:59:22.626Z,3.07
2019-04-26T01:04:25.049Z,3.40
2019-04-26T01:09:27.761Z,3.10
2019-04-26T01:14:29.244Z,3.50
2019-04-26T01:19:31.699Z,3.30
2019-04-26T01:24:37.433Z,3.37
2019-04-26T01:29:43.011Z,3.30
2019-04-26T01:34:45.869Z,3.00
2019-04-26T01:39:54.987Z,3.47
2019-04-26T01:45:20.331Z,3.50
2019-04-26T01:50:27.361Z,3.87
2019-04-26T01:55:31.344Z,4.00
2019-04-26T02:00:44.046Z,3.67
2019-04-26T02:05:46.092Z,3.83
2019-04-26T02:10:47.559Z,3.90
2019-04-26T02:15:50.247Z,3.70
2019-04-26T02:20:57.357Z,4.07
2019-04-26T02:26:02.876Z,3.70
2019-04-26T02:31:04.600Z,4.70
2019-04-26T02:36:06.019Z,4.03
2019-04-26T02:41:08.041Z,3.73
2019-04-26T02:46:24.241Z,3.67
2019-04-26T02:51:34.799Z,4.00
2019-04-26T02:56:46.287Z,3.70
2019-04-26T03:01:54.599Z,4.23
2019-04-26T03:07:03.792Z,3.70
2019-04-26T03:12:18.806Z,3.77
2019-04-26T03:17:47.542Z,4.00
2019-04-26T03:23:45.884Z,4.00
2019-04-26T03:28:50.398Z,4.27
2019-04-26T03:34:19.414Z,4.27
2019-04-26T03:39:36.730Z,4.30
2019-04-26T03:44:52.607Z,4.90
2019-04-26T03:50:14.357Z,4.90
2019-04-26T03:55:30.329Z,5.07
2019-04-26T04:00:39.305Z,5.23
2019-04-26T04:05:54.204Z,5.53
2019-04-26T04:11:07.779Z,5.20
2019-04-26T04:16:46.878Z,5.60
2019-04-26T04:22:05.751Z,6.23
2019-04-26T04:27:28.567Z,6.97
2019-04-26T04:32:49.814Z,7.73
2019-04-26T04:38:14.869Z,7.47
2019-04-26T04:43:24.032Z,7.97
2019-04-26T04:48:50.579Z,7.03
2019-04-26T04:54:07.891Z,7.33
2019-04-26T04:59:15.022Z,8.77
2019-04-26T05:04:27.212Z,7.57
2019-04-26T05:09:40.232Z,7.00
2019-04-26T05:14:59.327Z,7.53
2019-04-26T05:20:29.484Z,6.77
2019-04-26T05:25:59.749Z,7.20
2019-04-26T05:31:33.180Z,6.47
2019-04-26T05:36:57.992Z,5.50
2019-04-26T05:42:26.149Z,5.97
2019-04-26T05:48:05.285Z,6.13
2019-04-26T05:53:55.022Z,5.73
2019-04-26T05:59:06.310Z,5.47
2019-04-26T06:04:40.714Z,5.43
2019-04-26T06:10:10.586Z,5.67
2019-04-26T06:15:25.502Z,5.83
2019-04-26T06:20:51.188Z,5.63
2019-04-26T06:26:32.492Z,5.40
2019-04-26T06:31:58.138Z,4.37
2019-04-26T06:37:16.058Z,5.27
2019-04-26T06:42:26.862Z,4.20
2019-04-26T06:47:59.764Z,4.93
2019-04-26T06:53:35.037Z,4.57
2019-04-26T06:59:03.501Z,3.90
2019-04-26T07:04:35.489Z,6.23
2019-04-26T07:09:59.111Z,4.30
2019-04-26T07:15:28.834Z,3.80
2019-04-26T07:20:35.353Z,4.00
2019-04-26T07:26:03.762Z,4.10
2019-04-26T07:31:29.186Z,3.43
2019-04-26T07:37:29.666Z,3.80
2019-04-26T07:43:26.061Z,3.63
2019-04-26T07:49:17.416Z,4.00
2019-04-26T07:54:53.187Z,3.40
2019-04-26T08:00:44.670Z,2.97
2019-04-26T08:05:54.297Z,3.23
2019-04-26T08:11:10.736Z,3.40
2019-04-26T08:16:21.083Z,3.60
2019-04-26T08:21:31.933Z,3.03
2019-04-26T08:26:38.777Z,3.17
2019-04-26T08:31:44.945Z,2.93
2019-04-26T08:37:03.231Z,2.80
2019-04-26T08:42:18.140Z,3.20
2019-04-26T08:47:26.659Z,3.50
2019-04-26T08:52:35.578Z,2.57
2019-04-26T08:57:45.674Z,2.70
2019-04-26T09:03:17.518Z,2.50
2019-04-26T09:08:26.822Z,2.20
2019-04-26T09:13:35.110Z,2.00
2019-04-26T09:18:47.985Z,2.23
2019-04-26T09:24:08.094Z,1.83
2019-04-26T09:29:30.568Z,2.33
2019-04-26T09:34:36.540Z,1.87
2019-04-26T09:39:41.564Z,1.90
2019-04-26T09:44:43.515Z,2.03
2019-04-26T09:49:58.850Z,2.13
2019-04-26T09:55:00.401Z,2.10
2019-04-26T10:00:06.302Z,2.03
2019-04-26T10:05:12.063Z,2.07
2019-04-26T10:10:22.267Z,2.10
2019-04-26T10:15:26.199Z,1.27
2019-04-26T10:20:25.715Z,1.63
2019-04-26T10:25:29.350Z,1.73
2019-04-26T10:30:32.015Z,2.00
2019-04-26T10:35:34.646Z,1.77
2019-04-26T10:40:42.274Z,1.50
2019-04-26T10:45:53.497Z,1.47
2019-04-26T10:51:03.398Z,1.70
2019-04-26T10:56:32.299Z,1.53
2019-04-26T11:01:40.554Z,1.63
2019-04-26T11:06:42.320Z,1.17
2019-04-26T11:11:53.867Z,1.53
2019-04-26T11:16:55.387Z,1.40
2019-04-26T11:21:58.023Z,1.60
2019-04-26T11:26:59.397Z,1.67
2019-04-26T11:32:02.626Z,1.23
2019-04-26T11:37:05.508Z,1.03
2019-04-26T11:42:07.925Z,1.20
2019-04-26T11:47:10.318Z,1.27
2019-04-26T11:52:11.745Z,1.00
2019-04-26T11:57:14.227Z,1.30
2019-04-26T12:02:17.789Z,1.00
2019-04-26T12:07:21.166Z,1.17
2019-04-26T12:12:23.917Z,1.13
2019-04-26T12:17:31.245Z,1.00
2019-04-26T12:22:30.750Z,1.43
2019-04-26T12:27:33.386Z,1.37
2019-04-26T12:32:37.102Z,0.87
2019-04-26T12:37:44.374Z,0.93
2019-04-26T12:42:48.380Z,1.03
2019-04-26T12:47:56.084Z,1.10
2019-04-26T12:52:57.725Z,1.13
2019-04-26T12:57:59.158Z,0.77
2019-04-26T13:03:03.517Z,0.90
2019-04-26T13:08:05.484Z,0.70
2019-04-26T13:13:20.887Z,0.97
2019-04-26T13:18:22.372Z,0.70
2019-04-26T13:23:25.318Z,1.67
2019-04-26T13:28:28.296Z,3.23
2019-04-26T13:33:29.749Z,4.62
2019-04-26T13:38:31.225Z,3.80
2019-04-26T13:43:32.901Z,7.17
2019-04-26T13:48:55.543Z,1.37
2019-04-26T13:53:57.134Z,5.87
2019-04-26T13:58:59.961Z,5.87
2019-04-26T14:04:06.947Z,3.50
2019-04-26T14:09:07.693Z,9.98
2019-04-26T14:14:09.169Z,5.60
2019-04-26T14:19:15.380Z,4.20
2019-04-26T14:24:23.829Z,4.00
2019-04-26T14:29:23.350Z,3.98
2019-04-26T14:34:24.694Z,2.40
2019-04-26T14:39:38.285Z,2.37
2019-04-26T14:44:31.235Z,1.60
2019-04-26T14:49:39.647Z,1.20
2019-04-26T14:54:36.127Z,1.23
2019-04-26T14:59:49.477Z,1.00
2019-04-26T15:04:58.172Z,1.00
2019-04-26T15:09:59.296Z,1.23
2019-04-26T15:15:00.780Z,1.33
2019-04-26T15:20:04.410Z,0.80
2019-04-26T15:25:07.706Z,1.22
2019-04-26T15:30:09.938Z,0.70
2019-04-26T15:35:15.626Z,0.60
2019-04-26T15:40:27.418Z,0.70
2019-04-26T15:45:43.610Z,0.40
2019-04-26T15:50:53.542Z,0.57
2019-04-26T15:55:55.201Z,0.70
2019-04-26T16:00:59.636Z,0.87
2019-04-26T16:06:07.015Z,0.60
2019-04-26T16:11:07.245Z,0.70
2019-04-26T16:16:08.784Z,0.50
2019-04-26T16:21:13.509Z,0.80
2019-04-26T16:26:15.329Z,0.70
2019-04-26T16:31:24.798Z,0.60
2019-04-26T16:36:26.315Z,0.73
2019-04-26T16:41:28.547Z,1.57
2019-04-26T16:46:34.288Z,0.50
2019-04-26T16:51:36.896Z,0.60
2019-04-26T16:56:38.373Z,0.50
2019-04-26T17:01:43.527Z,0.80
2019-04-26T17:06:44.747Z,0.63
2019-04-26T17:11:46.531Z,0.87
2019-04-26T17:16:54.098Z,0.60
2019-04-26T17:22:01.730Z,0.60
2019-04-26T17:27:09.761Z,0.80
2019-04-26T17:32:13.926Z,0.53
2019-04-26T17:37:17.516Z,0.70
2019-04-26T17:42:20.944Z,0.70
2019-04-26T17:47:32.442Z,0.57
2019-04-26T17:52:35.888Z,0.60
2019-04-26T17:57:37.050Z,0.63
2019-04-26T18:02:45.977Z,0.70
2019-04-26T18:07:50.394Z,0.60
2019-04-26T18:12:47.461Z,0.70
2019-04-26T18:17:59.932Z,0.70
2019-04-26T18:23:05.645Z,0.80
2019-04-26T18:28:08.780Z,0.70
2019-04-26T18:33:11.251Z,0.57
2019-04-26T18:38:13.468Z,0.60
2019-04-26T18:43:18.882Z,0.50
2019-04-26T18:48:20.097Z,0.60
2019-04-26T18:53:39.392Z,0.60
2019-04-26T18:58:39.185Z,0.80
2019-04-26T19:03:43.593Z,0.50
2019-04-26T19:08:50.007Z,0.53
2019-04-26T19:14:13.051Z,1.20
2019-04-26T19:19:22.783Z,0.80
2019-04-26T19:24:22.918Z,0.73
2019-04-26T19:29:32.733Z,0.50
2019-04-26T19:34:32.184Z,0.40
2019-04-26T19:39:35.667Z,0.80
2019-04-26T19:44:39.950Z,0.70
2019-04-26T19:50:03.144Z,0.63
2019-04-26T19:55:23.825Z,0.80
2019-04-26T20:00:25.189Z,1.07
2019-04-26T20:05:31.922Z,1.10
2019-04-26T20:10:34.497Z,0.90
2019-04-26T20:15:36.677Z,1.03
2019-04-26T20:20:38.256Z,0.87
2019-04-26T20:25:39.624Z,1.43
2019-04-26T20:30:43.037Z,1.37
2019-04-26T20:35:44.401Z,1.10
2019-04-26T20:40:47.557Z,1.20
2019-04-26T20:46:09.567Z,1.60
2019-04-26T20:50:55.292Z,1.33
2019-04-26T20:55:58.327Z,1.07
2019-04-26T21:01:01.537Z,1.50
2019-04-26T21:06:05.654Z,2.00
2019-04-26T21:11:08.252Z,2.10
2019-04-26T21:16:13.252Z,1.77
2019-04-26T21:21:16.128Z,2.17
2019-04-26T21:26:21.641Z,1.83
2019-04-26T21:31:40.929Z,1.30
2019-04-26T21:37:03.439Z,1.00
2019-04-26T21:42:09.739Z,1.40
2019-04-26T21:47:11.460Z,1.27
2019-04-26T21:52:13.625Z,1.20
2019-04-26T21:57:18.307Z,1.30
2019-04-26T22:02:20.209Z,1.10
2019-04-26T22:07:24.210Z,1.73
2019-04-26T22:12:27.274Z,1.10
2019-04-26T22:17:36.550Z,1.70
2019-04-26T22:22:52.829Z,1.40
2019-04-26T22:28:00.196Z,1.60
2019-04-26T22:32:58.343Z,1.93
2019-04-26T22:38:00.185Z,1.50
2019-04-26T22:43:20.337Z,1.70
2019-04-26T22:48:26.742Z,1.77
2019-04-26T22:53:28.269Z,1.40
2019-04-26T22:58:29.716Z,1.80
2019-04-26T23:03:36.616Z,1.90
2019-04-26T23:08:40.772Z,2.10
2019-04-26T23:13:55.455Z,2.30
2019-04-26T23:19:06.790Z,2.07
2019-04-26T23:24:11.416Z,2.10
2019-04-26T23:29:16.998Z,2.57
2019-04-26T23:34:16.002Z,2.13
2019-04-26T23:39:17.402Z,2.57
2019-04-26T23:44:18.915Z,2.17
2019-04-26T23:49:23.320Z,2.03
2019-04-26T23:54:28.071Z,2.30
2019-04-26T23:59:27.928Z,2.13
